sensor_id;sensor_type;location;lat;lon;timestamp;P1;durP1;ratioP1;P2;durP2;ratioP2
3066;SDS011;1544;48.834;9.194;2023-09-12T00:01:49;13.00;;;11.80;;
3066;SDS011;1544;48.834;9.194;2023-09-12T00:04:25;11.13;;;10.13;;
3066;SDS011;1544;48.834;9.194;2023-09-12T00:07:02;11.53;;;10.40;;
3066;SDS011;1544;48.834;9.194;2023-09-12T00:09:38;11.90;;;10.73;;
3066;SDS011;1544;48.834;9.194;2023-09-12T00:12:14;11.10;;;10.03;;
3066;SDS011;1544;48.834;9.194;2023-09-12T00:14:51;10.77;;;9.77;;
3066;SDS011;1544;48.834;9.194;2023-09-12T00:17:27;11.57;;;10.13;;
3066;SDS011;1544;48.834;9.194;2023-09-12T00:20:03;11.70;;;10.50;;
3066;SDS011;1544;48.834;9.194;2023-09-12T00:22:42;11.40;;;10.40;;
3066;SDS011;1544;48.834;9.194;2023-09-12T00:25:17;11.33;;;9.70;;
3066;SDS011;1544;48.834;9.194;2023-09-12T00:27:54;11.93;;;10.33;;
3066;SDS011;1544;48.834;9.194;2023-09-12T00:30:29;11.03;;;10.00;;
3066;SDS011;1544;48.834;9.194;2023-09-12T00:33:05;11.80;;;10.70;;
3066;SDS011;1544;48.834;9.194;2023-09-12T00:35:42;11.80;;;10.70;;
3066;SDS011;1544;48.834;9.194;2023-09-12T00:38:19;13.37;;;10.90;;
3066;SDS011;1544;48.834;9.194;2023-09-12T00:40:55;12.80;;;11.30;;
3066;SDS011;1544;48.834;9.194;2023-09-12T00:43:31;13.30;;;12.00;;
3066;SDS011;1544;48.834;9.194;2023-09-12T00:46:07;12.77;;;11.50;;
3066;SDS011;1544;48.834;9.194;2023-09-12T00:48:43;13.07;;;11.53;;
3066;SDS011;1544;48.834;9.194;2023-09-12T00:51:22;11.23;;;10.17;;
3066;SDS011;1544;48.834;9.194;2023-09-12T00:54:00;10.07;;;9.27;;
3066;SDS011;1544;48.834;9.194;2023-09-12T00:56:36;11.83;;;10.83;;
3066;SDS011;1544;48.834;9.194;2023-09-12T00:59:14;12.50;;;11.03;;
3066;SDS011;1544;48.834;9.194;2023-09-12T01:01:52;12.03;;;10.77;;
3066;SDS011;1544;48.834;9.194;2023-09-12T01:04:28;11.90;;;10.90;;
3066;SDS011;1544;48.834;9.194;2023-09-12T01:07:09;11.43;;;10.43;;
3066;SDS011;1544;48.834;9.194;2023-09-12T01:09:46;13.77;;;12.43;;
3066;SDS011;1544;48.834;9.194;2023-09-12T01:12:22;11.63;;;10.63;;
3066;SDS011;1544;48.834;9.194;2023-09-12T01:14:58;13.40;;;11.97;;
3066;SDS011;1544;48.834;9.194;2023-09-12T01:17:33;12.63;;;11.43;;
3066;SDS011;1544;48.834;9.194;2023-09-12T01:20:17;11.93;;;10.83;;
3066;SDS011;1544;48.834;9.194;2023-09-12T01:23:04;11.90;;;10.80;;
3066;SDS011;1544;48.834;9.194;2023-09-12T01:29:25;12.47;;;11.33;;
3066;SDS011;1544;48.834;9.194;2023-09-12T01:32:02;13.50;;;11.13;;
3066;SDS011;1544;48.834;9.194;2023-09-12T01:34:39;12.70;;;11.43;;
3066;SDS011;1544;48.834;9.194;2023-09-12T01:37:15;12.23;;;11.07;;
3066;SDS011;1544;48.834;9.194;2023-09-12T01:39:51;12.43;;;11.33;;
3066;SDS011;1544;48.834;9.194;2023-09-12T01:42:28;19.50;;;11.47;;
3066;SDS011;1544;48.834;9.194;2023-09-12T01:45:13;11.77;;;10.50;;
3066;SDS011;1544;48.834;9.194;2023-09-12T01:47:56;12.77;;;11.40;;
3066;SDS011;1544;48.834;9.194;2023-09-12T01:50:33;12.77;;;11.57;;
3066;SDS011;1544;48.834;9.194;2023-09-12T01:53:10;13.30;;;11.13;;
3066;SDS011;1544;48.834;9.194;2023-09-12T01:55:47;16.30;;;11.10;;
3066;SDS011;1544;48.834;9.194;2023-09-12T01:58:25;12.67;;;11.43;;
3066;SDS011;1544;48.834;9.194;2023-09-12T02:01:01;13.27;;;12.07;;
3066;SDS011;1544;48.834;9.194;2023-09-12T02:03:37;14.47;;;11.80;;
3066;SDS011;1544;48.834;9.194;2023-09-12T02:06:13;12.50;;;11.40;;
3066;SDS011;1544;48.834;9.194;2023-09-12T02:08:49;12.70;;;11.60;;
3066;SDS011;1544;48.834;9.194;2023-09-12T02:11:26;12.40;;;11.10;;
3066;SDS011;1544;48.834;9.194;2023-09-12T02:14:02;12.13;;;11.10;;
3066;SDS011;1544;48.834;9.194;2023-09-12T02:16:38;12.60;;;11.30;;
3066;SDS011;1544;48.834;9.194;2023-09-12T02:19:18;13.53;;;12.30;;
3066;SDS011;1544;48.834;9.194;2023-09-12T02:21:54;12.97;;;11.67;;
3066;SDS011;1544;48.834;9.194;2023-09-12T02:24:30;14.67;;;12.90;;
3066;SDS011;1544;48.834;9.194;2023-09-12T02:27:06;17.03;;;13.27;;
3066;SDS011;1544;48.834;9.194;2023-09-12T02:29:42;13.73;;;12.33;;
3066;SDS011;1544;48.834;9.194;2023-09-12T02:32:18;14.80;;;12.63;;
3066;SDS011;1544;48.834;9.194;2023-09-12T02:34:54;13.50;;;12.13;;
3066;SDS011;1544;48.834;9.194;2023-09-12T02:37:32;16.70;;;15.00;;
3066;SDS011;1544;48.834;9.194;2023-09-12T02:40:08;14.43;;;13.13;;
3066;SDS011;1544;48.834;9.194;2023-09-12T02:42:47;15.13;;;13.73;;
3066;SDS011;1544;48.834;9.194;2023-09-12T02:45:23;17.03;;;14.40;;
3066;SDS011;1544;48.834;9.194;2023-09-12T02:47:59;20.43;;;15.23;;
3066;SDS011;1544;48.834;9.194;2023-09-12T02:50:35;16.80;;;13.90;;
3066;SDS011;1544;48.834;9.194;2023-09-12T02:53:11;15.93;;;14.33;;
3066;SDS011;1544;48.834;9.194;2023-09-12T02:55:47;15.87;;;14.27;;
3066;SDS011;1544;48.834;9.194;2023-09-12T02:58:23;15.87;;;14.37;;
3066;SDS011;1544;48.834;9.194;2023-09-12T03:00:59;14.27;;;12.87;;
3066;SDS011;1544;48.834;9.194;2023-09-12T03:03:36;15.30;;;12.37;;
3066;SDS011;1544;48.834;9.194;2023-09-12T03:06:12;15.00;;;13.70;;
3066;SDS011;1544;48.834;9.194;2023-09-12T03:08:53;14.13;;;12.63;;
3066;SDS011;1544;48.834;9.194;2023-09-12T03:11:29;14.27;;;12.60;;
3066;SDS011;1544;48.834;9.194;2023-09-12T03:14:05;14.90;;;12.07;;
3066;SDS011;1544;48.834;9.194;2023-09-12T03:16:41;15.43;;;12.27;;
3066;SDS011;1544;48.834;9.194;2023-09-12T03:19:17;13.13;;;11.93;;
3066;SDS011;1544;48.834;9.194;2023-09-12T03:21:53;11.83;;;10.73;;
3066;SDS011;1544;48.834;9.194;2023-09-12T03:24:29;13.77;;;12.40;;
3066;SDS011;1544;48.834;9.194;2023-09-12T03:27:06;11.93;;;10.83;;
3066;SDS011;1544;48.834;9.194;2023-09-12T03:29:46;12.40;;;11.10;;
3066;SDS011;1544;48.834;9.194;2023-09-12T03:32:23;11.93;;;10.90;;
3066;SDS011;1544;48.834;9.194;2023-09-12T03:34:59;12.50;;;11.30;;
3066;SDS011;1544;48.834;9.194;2023-09-12T03:37:35;12.80;;;11.60;;
3066;SDS011;1544;48.834;9.194;2023-09-12T03:40:15;15.00;;;12.40;;
3066;SDS011;1544;48.834;9.194;2023-09-12T03:42:51;14.70;;;12.13;;
3066;SDS011;1544;48.834;9.194;2023-09-12T03:45:27;17.30;;;12.47;;
3066;SDS011;1544;48.834;9.194;2023-09-12T03:48:04;12.77;;;11.53;;
3066;SDS011;1544;48.834;9.194;2023-09-12T03:50:40;13.00;;;11.23;;
3066;SDS011;1544;48.834;9.194;2023-09-12T03:53:17;13.67;;;11.30;;
3066;SDS011;1544;48.834;9.194;2023-09-12T03:55:53;12.63;;;11.47;;
3066;SDS011;1544;48.834;9.194;2023-09-12T03:58:29;11.90;;;10.80;;
3066;SDS011;1544;48.834;9.194;2023-09-12T04:01:05;12.10;;;11.00;;
3066;SDS011;1544;48.834;9.194;2023-09-12T04:03:41;14.00;;;12.33;;
3066;SDS011;1544;48.834;9.194;2023-09-12T04:06:18;11.93;;;10.93;;
3066;SDS011;1544;48.834;9.194;2023-09-12T04:08:54;11.93;;;10.73;;
3066;SDS011;1544;48.834;9.194;2023-09-12T04:11:29;13.90;;;11.80;;
3066;SDS011;1544;48.834;9.194;2023-09-12T04:14:21;14.23;;;11.87;;
3066;SDS011;1544;48.834;9.194;2023-09-12T04:16:57;18.20;;;12.10;;
3066;SDS011;1544;48.834;9.194;2023-09-12T04:19:35;13.53;;;12.03;;
3066;SDS011;1544;48.834;9.194;2023-09-12T04:22:11;13.70;;;11.67;;
3066;SDS011;1544;48.834;9.194;2023-09-12T04:24:47;12.60;;;11.30;;
3066;SDS011;1544;48.834;9.194;2023-09-12T04:27:23;10.60;;;9.70;;
3066;SDS011;1544;48.834;9.194;2023-09-12T04:30:00;13.13;;;11.30;;
3066;SDS011;1544;48.834;9.194;2023-09-12T04:32:37;12.80;;;11.60;;
3066;SDS011;1544;48.834;9.194;2023-09-12T04:35:13;12.37;;;11.17;;
3066;SDS011;1544;48.834;9.194;2023-09-12T04:37:49;12.30;;;10.97;;
3066;SDS011;1544;48.834;9.194;2023-09-12T04:40:25;15.43;;;11.77;;
3066;SDS011;1544;48.834;9.194;2023-09-12T04:43:01;12.20;;;10.93;;
3066;SDS011;1544;48.834;9.194;2023-09-12T04:45:38;12.70;;;10.70;;
3066;SDS011;1544;48.834;9.194;2023-09-12T04:48:14;12.27;;;11.03;;
3066;SDS011;1544;48.834;9.194;2023-09-12T04:50:50;10.90;;;9.90;;
3066;SDS011;1544;48.834;9.194;2023-09-12T04:53:26;12.50;;;11.30;;
3066;SDS011;1544;48.834;9.194;2023-09-12T04:56:03;12.03;;;10.80;;
3066;SDS011;1544;48.834;9.194;2023-09-12T04:58:41;13.27;;;11.87;;
3066;SDS011;1544;48.834;9.194;2023-09-12T05:01:18;11.00;;;10.03;;
3066;SDS011;1544;48.834;9.194;2023-09-12T05:03:55;13.87;;;11.40;;
3066;SDS011;1544;48.834;9.194;2023-09-12T05:06:31;12.80;;;10.07;;
3066;SDS011;1544;48.834;9.194;2023-09-12T05:09:07;11.47;;;10.37;;
3066;SDS011;1544;48.834;9.194;2023-09-12T05:11:44;13.13;;;9.90;;
3066;SDS011;1544;48.834;9.194;2023-09-12T05:14:20;12.27;;;11.00;;
3066;SDS011;1544;48.834;9.194;2023-09-12T05:16:56;12.10;;;10.97;;
3066;SDS011;1544;48.834;9.194;2023-09-12T05:19:32;12.07;;;10.80;;
3066;SDS011;1544;48.834;9.194;2023-09-12T05:22:08;10.80;;;9.80;;
3066;SDS011;1544;48.834;9.194;2023-09-12T05:24:44;11.60;;;10.30;;
3066;SDS011;1544;48.834;9.194;2023-09-12T05:27:21;12.83;;;11.10;;
3066;SDS011;1544;48.834;9.194;2023-09-12T05:29:57;11.20;;;10.10;;
3066;SDS011;1544;48.834;9.194;2023-09-12T05:32:33;11.13;;;10.13;;
3066;SDS011;1544;48.834;9.194;2023-09-12T05:35:12;10.80;;;9.70;;
3066;SDS011;1544;48.834;9.194;2023-09-12T05:37:57;10.80;;;9.40;;
3066;SDS011;1544;48.834;9.194;2023-09-12T05:40:34;10.60;;;9.80;;
3066;SDS011;1544;48.834;9.194;2023-09-12T05:43:10;10.17;;;9.23;;
3066;SDS011;1544;48.834;9.194;2023-09-12T05:45:46;9.13;;;8.23;;
3066;SDS011;1544;48.834;9.194;2023-09-12T05:48:22;9.57;;;8.53;;
3066;SDS011;1544;48.834;9.194;2023-09-12T05:50:59;11.17;;;10.07;;
3066;SDS011;1544;48.834;9.194;2023-09-12T05:53:37;10.00;;;9.00;;
3066;SDS011;1544;48.834;9.194;2023-09-12T05:56:13;11.47;;;10.27;;
3066;SDS011;1544;48.834;9.194;2023-09-12T05:58:55;11.07;;;10.00;;
3066;SDS011;1544;48.834;9.194;2023-09-12T06:01:31;10.53;;;9.57;;
3066;SDS011;1544;48.834;9.194;2023-09-12T06:04:07;11.30;;;9.00;;
3066;SDS011;1544;48.834;9.194;2023-09-12T06:06:46;10.07;;;9.27;;
3066;SDS011;1544;48.834;9.194;2023-09-12T06:09:22;10.13;;;9.33;;
3066;SDS011;1544;48.834;9.194;2023-09-12T06:11:58;9.27;;;7.73;;
3066;SDS011;1544;48.834;9.194;2023-09-12T06:14:34;12.23;;;9.97;;
3066;SDS011;1544;48.834;9.194;2023-09-12T06:17:10;12.47;;;11.27;;
3066;SDS011;1544;48.834;9.194;2023-09-12T06:19:46;11.17;;;10.17;;
3066;SDS011;1544;48.834;9.194;2023-09-12T06:22:24;11.20;;;10.07;;
3066;SDS011;1544;48.834;9.194;2023-09-12T06:25:00;11.37;;;10.27;;
3066;SDS011;1544;48.834;9.194;2023-09-12T06:27:36;9.40;;;8.50;;
3066;SDS011;1544;48.834;9.194;2023-09-12T06:30:13;12.93;;;10.33;;
3066;SDS011;1544;48.834;9.194;2023-09-12T06:32:49;10.27;;;9.43;;
3066;SDS011;1544;48.834;9.194;2023-09-12T06:35:25;9.63;;;8.73;;
3066;SDS011;1544;48.834;9.194;2023-09-12T06:38:03;9.90;;;8.90;;
3066;SDS011;1544;48.834;9.194;2023-09-12T06:40:39;10.57;;;9.60;;
3066;SDS011;1544;48.834;9.194;2023-09-12T06:43:15;12.23;;;10.43;;
3066;SDS011;1544;48.834;9.194;2023-09-12T06:45:51;9.77;;;8.87;;
3066;SDS011;1544;48.834;9.194;2023-09-12T06:48:27;9.17;;;8.37;;
3066;SDS011;1544;48.834;9.194;2023-09-12T06:51:04;9.00;;;8.30;;
3066;SDS011;1544;48.834;9.194;2023-09-12T06:53:52;10.73;;;9.77;;
3066;SDS011;1544;48.834;9.194;2023-09-12T06:56:28;12.03;;;10.83;;
3066;SDS011;1544;48.834;9.194;2023-09-12T06:59:04;10.60;;;9.70;;
3066;SDS011;1544;48.834;9.194;2023-09-12T07:01:40;11.60;;;10.40;;
3066;SDS011;1544;48.834;9.194;2023-09-12T07:04:16;12.17;;;11.03;;
3066;SDS011;1544;48.834;9.194;2023-09-12T07:06:53;11.23;;;10.13;;
3066;SDS011;1544;48.834;9.194;2023-09-12T07:09:32;12.93;;;11.50;;
3066;SDS011;1544;48.834;9.194;2023-09-12T07:12:14;11.23;;;10.17;;
3066;SDS011;1544;48.834;9.194;2023-09-12T07:14:50;11.23;;;10.23;;
3066;SDS011;1544;48.834;9.194;2023-09-12T07:17:27;10.77;;;9.77;;
3066;SDS011;1544;48.834;9.194;2023-09-12T07:20:05;10.20;;;9.30;;
3066;SDS011;1544;48.834;9.194;2023-09-12T07:22:46;11.37;;;9.77;;
3066;SDS011;1544;48.834;9.194;2023-09-12T07:25:22;10.70;;;9.80;;
3066;SDS011;1544;48.834;9.194;2023-09-12T07:27:59;10.87;;;9.87;;
3066;SDS011;1544;48.834;9.194;2023-09-12T07:30:35;9.17;;;8.37;;
3066;SDS011;1544;48.834;9.194;2023-09-12T07:33:12;9.80;;;9.00;;
3066;SDS011;1544;48.834;9.194;2023-09-12T07:35:49;10.47;;;9.57;;
3066;SDS011;1544;48.834;9.194;2023-09-12T07:38:28;11.77;;;10.60;;
3066;SDS011;1544;48.834;9.194;2023-09-12T07:41:07;13.17;;;11.93;;
3066;SDS011;1544;48.834;9.194;2023-09-12T07:43:44;12.00;;;10.87;;
3066;SDS011;1544;48.834;9.194;2023-09-12T07:46:20;12.80;;;11.57;;
3066;SDS011;1544;48.834;9.194;2023-09-12T07:48:56;12.13;;;11.03;;
3066;SDS011;1544;48.834;9.194;2023-09-12T07:51:33;13.30;;;11.87;;
3066;SDS011;1544;48.834;9.194;2023-09-12T07:54:10;13.53;;;12.23;;
3066;SDS011;1544;48.834;9.194;2023-09-12T07:56:46;12.17;;;10.90;;
3066;SDS011;1544;48.834;9.194;2023-09-12T07:59:22;15.77;;;12.77;;
3066;SDS011;1544;48.834;9.194;2023-09-12T08:01:58;12.10;;;10.93;;
3066;SDS011;1544;48.834;9.194;2023-09-12T08:04:35;11.70;;;10.40;;
3066;SDS011;1544;48.834;9.194;2023-09-12T08:07:13;12.77;;;11.23;;
3066;SDS011;1544;48.834;9.194;2023-09-12T08:12:31;12.40;;;11.10;;
3066;SDS011;1544;48.834;9.194;2023-09-12T08:15:07;13.33;;;11.10;;
3066;SDS011;1544;48.834;9.194;2023-09-12T08:17:44;11.10;;;10.00;;
3066;SDS011;1544;48.834;9.194;2023-09-12T08:20:20;12.97;;;10.53;;
3066;SDS011;1544;48.834;9.194;2023-09-12T08:22:56;11.37;;;10.37;;
3066;SDS011;1544;48.834;9.194;2023-09-12T08:25:32;10.17;;;9.37;;
3066;SDS011;1544;48.834;9.194;2023-09-12T08:28:08;12.70;;;11.07;;
3066;SDS011;1544;48.834;9.194;2023-09-12T08:30:45;17.47;;;11.60;;
3066;SDS011;1544;48.834;9.194;2023-09-12T08:33:22;14.83;;;10.93;;
3066;SDS011;1544;48.834;9.194;2023-09-12T08:36:01;14.47;;;11.77;;
3066;SDS011;1544;48.834;9.194;2023-09-12T08:38:37;12.20;;;10.60;;
3066;SDS011;1544;48.834;9.194;2023-09-12T08:41:13;12.20;;;10.83;;
3066;SDS011;1544;48.834;9.194;2023-09-12T08:43:50;11.10;;;10.07;;
3066;SDS011;1544;48.834;9.194;2023-09-12T08:46:27;11.60;;;10.53;;
3066;SDS011;1544;48.834;9.194;2023-09-12T08:49:03;13.83;;;11.40;;
3066;SDS011;1544;48.834;9.194;2023-09-12T08:51:41;12.93;;;11.63;;
3066;SDS011;1544;48.834;9.194;2023-09-12T08:54:18;10.97;;;9.97;;
3066;SDS011;1544;48.834;9.194;2023-09-12T08:56:54;10.03;;;9.33;;
3066;SDS011;1544;48.834;9.194;2023-09-12T08:59:31;11.70;;;10.70;;
3066;SDS011;1544;48.834;9.194;2023-09-12T09:02:09;10.57;;;9.47;;
3066;SDS011;1544;48.834;9.194;2023-09-12T09:04:48;13.07;;;11.77;;
3066;SDS011;1544;48.834;9.194;2023-09-12T09:07:27;11.20;;;10.20;;
3066;SDS011;1544;48.834;9.194;2023-09-12T09:10:09;11.83;;;9.97;;
3066;SDS011;1544;48.834;9.194;2023-09-12T09:12:53;13.87;;;10.30;;
3066;SDS011;1544;48.834;9.194;2023-09-12T09:15:29;11.30;;;10.20;;
3066;SDS011;1544;48.834;9.194;2023-09-12T09:18:05;10.87;;;9.83;;
3066;SDS011;1544;48.834;9.194;2023-09-12T09:20:42;10.90;;;9.33;;
3066;SDS011;1544;48.834;9.194;2023-09-12T09:23:20;10.60;;;9.60;;
3066;SDS011;1544;48.834;9.194;2023-09-12T09:25:58;11.50;;;10.40;;
3066;SDS011;1544;48.834;9.194;2023-09-12T09:28:34;9.93;;;9.13;;
3066;SDS011;1544;48.834;9.194;2023-09-12T09:31:13;10.00;;;9.10;;
3066;SDS011;1544;48.834;9.194;2023-09-12T09:33:49;10.57;;;9.77;;
3066;SDS011;1544;48.834;9.194;2023-09-12T09:36:27;12.20;;;9.47;;
3066;SDS011;1544;48.834;9.194;2023-09-12T09:39:03;10.33;;;9.30;;
3066;SDS011;1544;48.834;9.194;2023-09-12T09:41:40;10.03;;;9.20;;
3066;SDS011;1544;48.834;9.194;2023-09-12T09:44:17;10.00;;;9.13;;
3066;SDS011;1544;48.834;9.194;2023-09-12T09:46:54;10.27;;;9.23;;
3066;SDS011;1544;48.834;9.194;2023-09-12T09:49:39;10.50;;;9.57;;
3066;SDS011;1544;48.834;9.194;2023-09-12T09:52:15;11.13;;;9.40;;
3066;SDS011;1544;48.834;9.194;2023-09-12T09:54:51;10.93;;;9.83;;
3066;SDS011;1544;48.834;9.194;2023-09-12T09:57:27;10.73;;;9.73;;
3066;SDS011;1544;48.834;9.194;2023-09-12T10:00:03;9.33;;;8.63;;
3066;SDS011;1544;48.834;9.194;2023-09-12T10:02:44;9.23;;;8.53;;
3066;SDS011;1544;48.834;9.194;2023-09-12T10:05:21;9.93;;;9.23;;
3066;SDS011;1544;48.834;9.194;2023-09-12T10:07:58;8.53;;;7.80;;
3066;SDS011;1544;48.834;9.194;2023-09-12T10:10:38;9.00;;;8.40;;
3066;SDS011;1544;48.834;9.194;2023-09-12T10:13:15;10.17;;;9.10;;
3066;SDS011;1544;48.834;9.194;2023-09-12T10:15:53;10.07;;;9.13;;
3066;SDS011;1544;48.834;9.194;2023-09-12T10:18:33;9.30;;;8.27;;
3066;SDS011;1544;48.834;9.194;2023-09-12T10:21:19;8.17;;;7.67;;
3066;SDS011;1544;48.834;9.194;2023-09-12T10:24:06;9.73;;;8.93;;
3066;SDS011;1544;48.834;9.194;2023-09-12T10:26:44;8.90;;;8.30;;
3066;SDS011;1544;48.834;9.194;2023-09-12T10:29:21;9.33;;;8.53;;
3066;SDS011;1544;48.834;9.194;2023-09-12T10:31:58;8.10;;;7.50;;
3066;SDS011;1544;48.834;9.194;2023-09-12T10:34:34;8.97;;;8.27;;
3066;SDS011;1544;48.834;9.194;2023-09-12T10:37:12;8.90;;;8.20;;
3066;SDS011;1544;48.834;9.194;2023-09-12T10:39:53;8.60;;;8.00;;
3066;SDS011;1544;48.834;9.194;2023-09-12T10:42:29;9.90;;;9.10;;
3066;SDS011;1544;48.834;9.194;2023-09-12T10:45:08;9.20;;;8.33;;
3066;SDS011;1544;48.834;9.194;2023-09-12T10:47:45;8.50;;;8.00;;
3066;SDS011;1544;48.834;9.194;2023-09-12T10:50:23;8.80;;;8.10;;
3066;SDS011;1544;48.834;9.194;2023-09-12T10:53:12;10.53;;;8.20;;
3066;SDS011;1544;48.834;9.194;2023-09-12T11:01:40;9.43;;;8.63;;
3066;SDS011;1544;48.834;9.194;2023-09-12T11:06:59;9.33;;;8.47;;
3066;SDS011;1544;48.834;9.194;2023-09-12T11:09:35;7.47;;;6.97;;
3066;SDS011;1544;48.834;9.194;2023-09-12T11:12:34;8.20;;;7.50;;
3066;SDS011;1544;48.834;9.194;2023-09-12T11:15:11;7.60;;;6.93;;
3066;SDS011;1544;48.834;9.194;2023-09-12T11:17:59;9.17;;;8.33;;
3066;SDS011;1544;48.834;9.194;2023-09-12T11:23:32;15.10;;;11.90;;
3066;SDS011;1544;48.834;9.194;2023-09-12T11:26:11;10.03;;;9.07;;
3066;SDS011;1544;48.834;9.194;2023-09-12T11:28:49;12.53;;;10.50;;
3066;SDS011;1544;48.834;9.194;2023-09-12T11:31:26;35.87;;;21.00;;
3066;SDS011;1544;48.834;9.194;2023-09-12T11:34:02;28.50;;;15.80;;
3066;SDS011;1544;48.834;9.194;2023-09-12T11:36:41;11.83;;;10.00;;
3066;SDS011;1544;48.834;9.194;2023-09-12T11:39:31;10.53;;;9.40;;
3066;SDS011;1544;48.834;9.194;2023-09-12T11:42:10;7.93;;;7.13;;
3066;SDS011;1544;48.834;9.194;2023-09-12T11:44:49;8.17;;;7.40;;
3066;SDS011;1544;48.834;9.194;2023-09-12T11:47:27;8.20;;;7.50;;
3066;SDS011;1544;48.834;9.194;2023-09-12T11:50:03;6.07;;;5.67;;
3066;SDS011;1544;48.834;9.194;2023-09-12T11:52:39;7.93;;;7.33;;
3066;SDS011;1544;48.834;9.194;2023-09-12T11:55:22;7.73;;;7.10;;
3066;SDS011;1544;48.834;9.194;2023-09-12T11:57:58;7.30;;;6.70;;
3066;SDS011;1544;48.834;9.194;2023-09-12T12:00:34;7.77;;;7.17;;
3066;SDS011;1544;48.834;9.194;2023-09-12T12:03:10;7.47;;;6.97;;
3066;SDS011;1544;48.834;9.194;2023-09-12T12:05:47;6.97;;;6.47;;
3066;SDS011;1544;48.834;9.194;2023-09-12T12:08:23;6.87;;;6.30;;
3066;SDS011;1544;48.834;9.194;2023-09-12T12:11:06;6.57;;;6.10;;
3066;SDS011;1544;48.834;9.194;2023-09-12T12:13:43;9.57;;;7.30;;
3066;SDS011;1544;48.834;9.194;2023-09-12T12:16:19;8.17;;;6.70;;
3066;SDS011;1544;48.834;9.194;2023-09-12T12:18:55;7.03;;;6.53;;
3066;SDS011;1544;48.834;9.194;2023-09-12T12:21:33;7.10;;;6.70;;
3066;SDS011;1544;48.834;9.194;2023-09-12T12:24:13;7.00;;;6.40;;
3066;SDS011;1544;48.834;9.194;2023-09-12T12:26:50;7.30;;;6.60;;
3066;SDS011;1544;48.834;9.194;2023-09-12T12:29:28;7.50;;;6.80;;
3066;SDS011;1544;48.834;9.194;2023-09-12T12:32:06;7.87;;;6.67;;
3066;SDS011;1544;48.834;9.194;2023-09-12T12:34:48;6.37;;;5.87;;
3066;SDS011;1544;48.834;9.194;2023-09-12T12:37:44;7.00;;;6.43;;
3066;SDS011;1544;48.834;9.194;2023-09-12T12:40:29;6.97;;;6.37;;
3066;SDS011;1544;48.834;9.194;2023-09-12T12:43:18;10.17;;;6.30;;
3066;SDS011;1544;48.834;9.194;2023-09-12T12:45:56;5.87;;;5.53;;
3066;SDS011;1544;48.834;9.194;2023-09-12T12:48:34;6.93;;;6.40;;
3066;SDS011;1544;48.834;9.194;2023-09-12T12:51:18;6.87;;;6.30;;
3066;SDS011;1544;48.834;9.194;2023-09-12T12:54:05;6.50;;;6.00;;
3066;SDS011;1544;48.834;9.194;2023-09-12T12:56:42;6.30;;;6.00;;
3066;SDS011;1544;48.834;9.194;2023-09-12T12:59:20;6.63;;;6.23;;
3066;SDS011;1544;48.834;9.194;2023-09-12T13:01:56;6.60;;;6.10;;
3066;SDS011;1544;48.834;9.194;2023-09-12T13:04:36;6.27;;;5.97;;
3066;SDS011;1544;48.834;9.194;2023-09-12T13:07:13;6.57;;;6.17;;
3066;SDS011;1544;48.834;9.194;2023-09-12T13:09:49;5.97;;;5.57;;
3066;SDS011;1544;48.834;9.194;2023-09-12T13:12:25;6.60;;;6.10;;
3066;SDS011;1544;48.834;9.194;2023-09-12T13:15:01;7.13;;;6.53;;
3066;SDS011;1544;48.834;9.194;2023-09-12T13:17:37;7.20;;;6.80;;
3066;SDS011;1544;48.834;9.194;2023-09-12T13:20:14;6.70;;;6.30;;
3066;SDS011;1544;48.834;9.194;2023-09-12T13:22:51;6.83;;;6.30;;
3066;SDS011;1544;48.834;9.194;2023-09-12T13:25:27;7.23;;;6.73;;
3066;SDS011;1544;48.834;9.194;2023-09-12T13:28:03;8.07;;;7.27;;
3066;SDS011;1544;48.834;9.194;2023-09-12T13:30:40;8.00;;;7.20;;
3066;SDS011;1544;48.834;9.194;2023-09-12T13:33:16;7.37;;;6.73;;
3066;SDS011;1544;48.834;9.194;2023-09-12T13:35:52;7.50;;;6.80;;
3066;SDS011;1544;48.834;9.194;2023-09-12T13:38:28;8.13;;;6.90;;
3066;SDS011;1544;48.834;9.194;2023-09-12T13:41:04;7.27;;;6.67;;
3066;SDS011;1544;48.834;9.194;2023-09-12T13:43:40;7.47;;;6.77;;
3066;SDS011;1544;48.834;9.194;2023-09-12T13:46:17;7.00;;;6.60;;
3066;SDS011;1544;48.834;9.194;2023-09-12T13:48:53;7.20;;;6.53;;
3066;SDS011;1544;48.834;9.194;2023-09-12T13:51:30;7.27;;;6.67;;
3066;SDS011;1544;48.834;9.194;2023-09-12T13:54:06;7.13;;;6.50;;
3066;SDS011;1544;48.834;9.194;2023-09-12T13:56:43;8.90;;;8.00;;
3066;SDS011;1544;48.834;9.194;2023-09-12T13:59:19;6.80;;;6.20;;
3066;SDS011;1544;48.834;9.194;2023-09-12T14:01:56;7.30;;;6.77;;
3066;SDS011;1544;48.834;9.194;2023-09-12T14:04:32;7.63;;;6.87;;
3066;SDS011;1544;48.834;9.194;2023-09-12T14:07:09;7.37;;;6.67;;
3066;SDS011;1544;48.834;9.194;2023-09-12T14:09:45;7.57;;;6.87;;
3066;SDS011;1544;48.834;9.194;2023-09-12T14:12:24;7.20;;;6.63;;
3066;SDS011;1544;48.834;9.194;2023-09-12T14:15:04;7.27;;;6.67;;
3066;SDS011;1544;48.834;9.194;2023-09-12T14:17:44;7.70;;;7.20;;
3066;SDS011;1544;48.834;9.194;2023-09-12T14:20:30;6.70;;;6.30;;
3066;SDS011;1544;48.834;9.194;2023-09-12T14:23:07;7.27;;;6.60;;
3066;SDS011;1544;48.834;9.194;2023-09-12T14:25:43;7.40;;;6.90;;
3066;SDS011;1544;48.834;9.194;2023-09-12T14:28:21;8.10;;;6.40;;
3066;SDS011;1544;48.834;9.194;2023-09-12T14:30:57;7.03;;;6.53;;
3066;SDS011;1544;48.834;9.194;2023-09-12T14:33:33;6.40;;;6.10;;
3066;SDS011;1544;48.834;9.194;2023-09-12T14:36:09;7.87;;;7.27;;
3066;SDS011;1544;48.834;9.194;2023-09-12T14:38:46;8.13;;;7.03;;
3066;SDS011;1544;48.834;9.194;2023-09-12T14:41:21;7.43;;;6.80;;
3066;SDS011;1544;48.834;9.194;2023-09-12T14:43:58;7.43;;;6.90;;
3066;SDS011;1544;48.834;9.194;2023-09-12T14:46:34;7.07;;;6.53;;
3066;SDS011;1544;48.834;9.194;2023-09-12T14:49:10;6.23;;;5.73;;
3066;SDS011;1544;48.834;9.194;2023-09-12T14:51:46;7.77;;;7.20;;
3066;SDS011;1544;48.834;9.194;2023-09-12T14:54:22;6.93;;;6.23;;
3066;SDS011;1544;48.834;9.194;2023-09-12T14:56:58;7.53;;;7.03;;
3066;SDS011;1544;48.834;9.194;2023-09-12T14:59:34;7.37;;;6.73;;
3066;SDS011;1544;48.834;9.194;2023-09-12T15:02:11;7.87;;;7.37;;
3066;SDS011;1544;48.834;9.194;2023-09-12T15:04:47;6.73;;;6.40;;
3066;SDS011;1544;48.834;9.194;2023-09-12T15:07:23;8.33;;;7.60;;
3066;SDS011;1544;48.834;9.194;2023-09-12T15:09:59;7.83;;;7.13;;
3066;SDS011;1544;48.834;9.194;2023-09-12T15:12:35;6.97;;;6.57;;
3066;SDS011;1544;48.834;9.194;2023-09-12T15:15:11;7.10;;;6.60;;
3066;SDS011;1544;48.834;9.194;2023-09-12T15:17:47;7.70;;;7.20;;
3066;SDS011;1544;48.834;9.194;2023-09-12T15:20:23;6.40;;;6.10;;
3066;SDS011;1544;48.834;9.194;2023-09-12T15:22:59;7.93;;;7.17;;
3066;SDS011;1544;48.834;9.194;2023-09-12T15:25:35;7.40;;;6.80;;
3066;SDS011;1544;48.834;9.194;2023-09-12T15:28:11;7.53;;;7.03;;
3066;SDS011;1544;48.834;9.194;2023-09-12T15:30:47;7.30;;;6.60;;
3066;SDS011;1544;48.834;9.194;2023-09-12T15:33:23;7.87;;;7.10;;
3066;SDS011;1544;48.834;9.194;2023-09-12T15:36:00;7.70;;;7.00;;
3066;SDS011;1544;48.834;9.194;2023-09-12T15:38:36;6.70;;;6.30;;
3066;SDS011;1544;48.834;9.194;2023-09-12T15:41:12;7.67;;;6.97;;
3066;SDS011;1544;48.834;9.194;2023-09-12T15:43:48;7.30;;;6.80;;
3066;SDS011;1544;48.834;9.194;2023-09-12T15:46:42;6.70;;;6.20;;
3066;SDS011;1544;48.834;9.194;2023-09-12T15:49:18;8.73;;;8.13;;
3066;SDS011;1544;48.834;9.194;2023-09-12T15:51:54;6.50;;;6.20;;
3066;SDS011;1544;48.834;9.194;2023-09-12T15:54:31;8.00;;;7.50;;
3066;SDS011;1544;48.834;9.194;2023-09-12T15:57:07;7.40;;;6.90;;
3066;SDS011;1544;48.834;9.194;2023-09-12T15:59:43;7.60;;;7.00;;
3066;SDS011;1544;48.834;9.194;2023-09-12T16:02:18;6.97;;;6.27;;
3066;SDS011;1544;48.834;9.194;2023-09-12T16:04:54;7.13;;;6.73;;
3066;SDS011;1544;48.834;9.194;2023-09-12T16:07:31;7.40;;;6.77;;
3066;SDS011;1544;48.834;9.194;2023-09-12T16:10:07;8.30;;;7.20;;
3066;SDS011;1544;48.834;9.194;2023-09-12T16:12:44;8.00;;;7.40;;
3066;SDS011;1544;48.834;9.194;2023-09-12T16:15:20;8.20;;;7.50;;
3066;SDS011;1544;48.834;9.194;2023-09-12T16:17:56;8.77;;;7.97;;
3066;SDS011;1544;48.834;9.194;2023-09-12T16:20:32;9.50;;;7.53;;